sensor_id;sensor_type;location;lat;lon;timestamp;P1;durP1;ratioP1;P2;durP2;ratioP2
43994;SDS011;51687;52.160;5.298;2022-10-22T00:00:00;7.13;;;3.10;;
43994;SDS011;51687;52.160;5.298;2022-10-22T00:02:27;6.88;;;2.70;;
43994;SDS011;51687;52.160;5.298;2022-10-22T00:04:54;4.97;;;3.05;;
43994;SDS011;51687;52.160;5.298;2022-10-22T00:07:22;4.43;;;3.00;;
43994;SDS011;51687;52.160;5.298;2022-10-22T00:09:49;5.57;;;2.88;;
43994;SDS011;51687;52.160;5.298;2022-10-22T00:12:16;4.85;;;3.00;;
43994;SDS011;51687;52.160;5.298;2022-10-22T00:14:43;12.63;;;2.90;;
43994;SDS011;51687;52.160;5.298;2022-10-22T00:17:09;9.80;;;3.53;;
43994;SDS011;51687;52.160;5.298;2022-10-22T00:19:37;5.90;;;2.80;;
43994;SDS011;51687;52.160;5.298;2022-10-22T00:22:04;11.30;;;3.05;;
43994;SDS011;51687;52.160;5.298;2022-10-22T00:24:32;4.35;;;3.20;;
43994;SDS011;51687;52.160;5.298;2022-10-22T00:26:59;11.02;;;3.25;;
43994;SDS011;51687;52.160;5.298;2022-10-22T00:29:26;6.10;;;3.35;;
43994;SDS011;51687;52.160;5.298;2022-10-22T00:31:53;5.53;;;3.42;;
43994;SDS011;51687;52.160;5.298;2022-10-22T00:34:25;8.93;;;3.20;;
43994;SDS011;51687;52.160;5.298;2022-10-22T00:36:52;8.20;;;3.63;;
43994;SDS011;51687;52.160;5.298;2022-10-22T00:39:21;7.43;;;3.03;;
43994;SDS011;51687;52.160;5.298;2022-10-22T00:41:49;6.00;;;3.17;;
43994;SDS011;51687;52.160;5.298;2022-10-22T00:47:22;6.03;;;3.25;;
43994;SDS011;51687;52.160;5.298;2022-10-22T00:49:50;10.15;;;3.05;;
43994;SDS011;51687;52.160;5.298;2022-10-22T00:52:18;8.65;;;3.40;;
43994;SDS011;51687;52.160;5.298;2022-10-22T00:54:46;9.52;;;3.08;;
43994;SDS011;51687;52.160;5.298;2022-10-22T00:57:14;8.80;;;3.47;;
43994;SDS011;51687;52.160;5.298;2022-10-22T00:59:41;5.30;;;3.00;;
43994;SDS011;51687;52.160;5.298;2022-10-22T01:02:08;5.22;;;2.90;;
43994;SDS011;51687;52.160;5.298;2022-10-22T01:04:35;8.27;;;3.55;;
43994;SDS011;51687;52.160;5.298;2022-10-22T01:07:02;7.53;;;3.55;;
43994;SDS011;51687;52.160;5.298;2022-10-22T01:12:09;4.40;;;2.95;;
43994;SDS011;51687;52.160;5.298;2022-10-22T01:17:29;9.98;;;2.92;;
43994;SDS011;51687;52.160;5.298;2022-10-22T01:25:56;8.38;;;3.58;;
43994;SDS011;51687;52.160;5.298;2022-10-22T01:31:13;4.75;;;2.75;;
43994;SDS011;51687;52.160;5.298;2022-10-22T01:33:43;6.07;;;3.13;;
43994;SDS011;51687;52.160;5.298;2022-10-22T01:36:13;9.07;;;2.72;;
43994;SDS011;51687;52.160;5.298;2022-10-22T01:38:41;4.97;;;3.35;;
43994;SDS011;51687;52.160;5.298;2022-10-22T01:41:11;12.57;;;3.17;;
43994;SDS011;51687;52.160;5.298;2022-10-22T01:43:39;11.38;;;3.50;;
43994;SDS011;51687;52.160;5.298;2022-10-22T01:46:05;9.40;;;3.58;;
43994;SDS011;51687;52.160;5.298;2022-10-22T01:51:43;10.77;;;2.78;;
43994;SDS011;51687;52.160;5.298;2022-10-22T01:54:39;7.60;;;2.70;;
43994;SDS011;51687;52.160;5.298;2022-10-22T01:57:24;6.32;;;2.53;;
43994;SDS011;51687;52.160;5.298;2022-10-22T02:00:09;11.77;;;3.78;;
43994;SDS011;51687;52.160;5.298;2022-10-22T02:02:55;8.43;;;2.95;;
43994;SDS011;51687;52.160;5.298;2022-10-22T02:05:42;10.27;;;2.90;;
43994;SDS011;51687;52.160;5.298;2022-10-22T02:08:18;9.30;;;2.97;;
43994;SDS011;51687;52.160;5.298;2022-10-22T02:10:48;10.00;;;2.95;;
43994;SDS011;51687;52.160;5.298;2022-10-22T02:13:17;6.35;;;2.70;;
43994;SDS011;51687;52.160;5.298;2022-10-22T02:16:08;10.45;;;3.10;;
43994;SDS011;51687;52.160;5.298;2022-10-22T02:18:39;7.28;;;2.72;;
43994;SDS011;51687;52.160;5.298;2022-10-22T02:21:09;5.00;;;2.45;;
43994;SDS011;51687;52.160;5.298;2022-10-22T02:23:36;7.20;;;2.60;;
43994;SDS011;51687;52.160;5.298;2022-10-22T02:26:10;7.70;;;2.73;;
43994;SDS011;51687;52.160;5.298;2022-10-22T02:31:32;6.53;;;2.72;;
43994;SDS011;51687;52.160;5.298;2022-10-22T02:34:06;6.57;;;2.85;;
43994;SDS011;51687;52.160;5.298;2022-10-22T02:36:37;8.13;;;2.58;;
43994;SDS011;51687;52.160;5.298;2022-10-22T02:39:04;8.90;;;2.80;;
43994;SDS011;51687;52.160;5.298;2022-10-22T02:41:33;10.90;;;2.60;;
43994;SDS011;51687;52.160;5.298;2022-10-22T02:44:00;10.63;;;2.77;;
43994;SDS011;51687;52.160;5.298;2022-10-22T02:46:28;8.05;;;2.83;;
43994;SDS011;51687;52.160;5.298;2022-10-22T02:48:54;8.80;;;2.72;;
43994;SDS011;51687;52.160;5.298;2022-10-22T02:51:21;5.65;;;2.30;;
43994;SDS011;51687;52.160;5.298;2022-10-22T02:53:48;8.00;;;3.72;;
43994;SDS011;51687;52.160;5.298;2022-10-22T02:56:14;9.77;;;3.20;;
43994;SDS011;51687;52.160;5.298;2022-10-22T02:58:42;6.68;;;2.65;;
43994;SDS011;51687;52.160;5.298;2022-10-22T03:01:09;9.32;;;2.95;;
43994;SDS011;51687;52.160;5.298;2022-10-22T03:03:40;10.70;;;3.30;;
43994;SDS011;51687;52.160;5.298;2022-10-22T03:06:07;9.35;;;3.33;;
43994;SDS011;51687;52.160;5.298;2022-10-22T03:08:34;9.65;;;3.45;;
43994;SDS011;51687;52.160;5.298;2022-10-22T03:11:00;8.13;;;3.60;;
43994;SDS011;51687;52.160;5.298;2022-10-22T03:13:27;5.70;;;3.20;;
43994;SDS011;51687;52.160;5.298;2022-10-22T03:15:54;7.15;;;3.55;;
43994;SDS011;51687;52.160;5.298;2022-10-22T03:18:21;7.80;;;3.90;;
43994;SDS011;51687;52.160;5.298;2022-10-22T03:20:47;9.25;;;3.60;;
43994;SDS011;51687;52.160;5.298;2022-10-22T03:23:15;9.52;;;3.50;;
43994;SDS011;51687;52.160;5.298;2022-10-22T03:25:44;17.75;;;3.60;;
43994;SDS011;51687;52.160;5.298;2022-10-22T03:28:12;7.90;;;3.92;;
43994;SDS011;51687;52.160;5.298;2022-10-22T03:30:42;9.15;;;3.80;;
43994;SDS011;51687;52.160;5.298;2022-10-22T03:33:09;11.50;;;4.47;;
43994;SDS011;51687;52.160;5.298;2022-10-22T03:35:36;9.30;;;3.65;;
43994;SDS011;51687;52.160;5.298;2022-10-22T03:38:09;8.27;;;3.92;;
43994;SDS011;51687;52.160;5.298;2022-10-22T03:40:37;6.85;;;3.08;;
43994;SDS011;51687;52.160;5.298;2022-10-22T03:43:05;11.82;;;4.28;;
43994;SDS011;51687;52.160;5.298;2022-10-22T03:45:31;7.72;;;3.92;;
43994;SDS011;51687;52.160;5.298;2022-10-22T03:47:58;7.07;;;3.60;;
43994;SDS011;51687;52.160;5.298;2022-10-22T03:50:25;16.27;;;4.68;;
43994;SDS011;51687;52.160;5.298;2022-10-22T03:52:52;10.93;;;4.38;;
43994;SDS011;51687;52.160;5.298;2022-10-22T03:55:18;7.15;;;3.65;;
43994;SDS011;51687;52.160;5.298;2022-10-22T03:57:45;12.27;;;4.05;;
43994;SDS011;51687;52.160;5.298;2022-10-22T04:00:12;9.30;;;3.90;;
43994;SDS011;51687;52.160;5.298;2022-10-22T04:02:39;9.25;;;3.90;;
43994;SDS011;51687;52.160;5.298;2022-10-22T04:05:06;5.05;;;3.90;;
43994;SDS011;51687;52.160;5.298;2022-10-22T04:07:33;6.78;;;4.00;;
43994;SDS011;51687;52.160;5.298;2022-10-22T04:10:00;11.00;;;4.30;;
43994;SDS011;51687;52.160;5.298;2022-10-22T04:12:26;12.02;;;4.13;;
43994;SDS011;51687;52.160;5.298;2022-10-22T04:14:53;8.15;;;3.20;;
43994;SDS011;51687;52.160;5.298;2022-10-22T04:17:20;10.18;;;4.03;;
43994;SDS011;51687;52.160;5.298;2022-10-22T04:19:46;7.80;;;3.90;;
43994;SDS011;51687;52.160;5.298;2022-10-22T04:22:13;5.82;;;3.58;;
43994;SDS011;51687;52.160;5.298;2022-10-22T04:24:40;8.57;;;3.80;;
43994;SDS011;51687;52.160;5.298;2022-10-22T04:27:06;7.15;;;4.10;;
43994;SDS011;51687;52.160;5.298;2022-10-22T04:29:33;13.43;;;4.10;;
43994;SDS011;51687;52.160;5.298;2022-10-22T04:32:00;9.70;;;4.53;;
43994;SDS011;51687;52.160;5.298;2022-10-22T04:34:27;9.60;;;4.03;;
43994;SDS011;51687;52.160;5.298;2022-10-22T04:36:54;9.82;;;4.00;;
43994;SDS011;51687;52.160;5.298;2022-10-22T04:39:21;16.33;;;4.32;;
43994;SDS011;51687;52.160;5.298;2022-10-22T04:41:48;11.77;;;4.35;;
43994;SDS011;51687;52.160;5.298;2022-10-22T04:44:15;13.80;;;4.43;;
43994;SDS011;51687;52.160;5.298;2022-10-22T04:46:43;8.20;;;4.43;;
43994;SDS011;51687;52.160;5.298;2022-10-22T04:49:10;13.52;;;4.60;;
43994;SDS011;51687;52.160;5.298;2022-10-22T04:51:36;8.93;;;3.92;;
43994;SDS011;51687;52.160;5.298;2022-10-22T04:54:03;9.80;;;4.00;;
43994;SDS011;51687;52.160;5.298;2022-10-22T04:56:30;9.80;;;4.03;;
43994;SDS011;51687;52.160;5.298;2022-10-22T04:58:59;9.48;;;4.50;;
43994;SDS011;51687;52.160;5.298;2022-10-22T05:01:28;11.60;;;4.32;;
43994;SDS011;51687;52.160;5.298;2022-10-22T05:03:57;10.07;;;4.28;;
43994;SDS011;51687;52.160;5.298;2022-10-22T05:06:26;7.95;;;3.80;;
43994;SDS011;51687;52.160;5.298;2022-10-22T05:08:56;12.30;;;4.72;;
43994;SDS011;51687;52.160;5.298;2022-10-22T05:11:28;7.78;;;3.65;;
43994;SDS011;51687;52.160;5.298;2022-10-22T05:13:56;7.38;;;3.60;;
43994;SDS011;51687;52.160;5.298;2022-10-22T05:16:24;13.10;;;3.85;;
43994;SDS011;51687;52.160;5.298;2022-10-22T05:18:52;7.45;;;3.90;;
43994;SDS011;51687;52.160;5.298;2022-10-22T05:21:19;8.40;;;4.20;;
43994;SDS011;51687;52.160;5.298;2022-10-22T05:23:47;9.23;;;4.05;;
43994;SDS011;51687;52.160;5.298;2022-10-22T05:31:11;14.27;;;3.95;;
43994;SDS011;51687;52.160;5.298;2022-10-22T05:33:39;9.07;;;3.78;;
43994;SDS011;51687;52.160;5.298;2022-10-22T05:36:06;6.23;;;3.77;;
43994;SDS011;51687;52.160;5.298;2022-10-22T05:38:35;9.20;;;3.55;;
43994;SDS011;51687;52.160;5.298;2022-10-22T05:41:03;7.50;;;4.40;;
43994;SDS011;51687;52.160;5.298;2022-10-22T05:43:35;10.88;;;4.07;;
43994;SDS011;51687;52.160;5.298;2022-10-22T05:46:02;11.10;;;4.03;;
43994;SDS011;51687;52.160;5.298;2022-10-22T05:48:32;13.48;;;4.22;;
43994;SDS011;51687;52.160;5.298;2022-10-22T05:51:03;8.80;;;3.55;;
43994;SDS011;51687;52.160;5.298;2022-10-22T05:53:32;11.23;;;3.85;;
43994;SDS011;51687;52.160;5.298;2022-10-22T05:56:03;10.30;;;3.58;;
43994;SDS011;51687;52.160;5.298;2022-10-22T05:58:32;16.63;;;4.63;;
43994;SDS011;51687;52.160;5.298;2022-10-22T06:01:00;5.63;;;3.65;;
43994;SDS011;51687;52.160;5.298;2022-10-22T06:03:31;16.25;;;4.78;;
43994;SDS011;51687;52.160;5.298;2022-10-22T06:05:59;9.82;;;4.32;;
43994;SDS011;51687;52.160;5.298;2022-10-22T06:08:28;17.75;;;4.70;;
43994;SDS011;51687;52.160;5.298;2022-10-22T06:10:55;9.50;;;3.40;;
43994;SDS011;51687;52.160;5.298;2022-10-22T06:13:23;8.60;;;4.05;;
43994;SDS011;51687;52.160;5.298;2022-10-22T06:15:50;9.68;;;4.88;;
43994;SDS011;51687;52.160;5.298;2022-10-22T06:18:18;11.80;;;3.60;;
43994;SDS011;51687;52.160;5.298;2022-10-22T06:20:45;10.13;;;3.60;;
43994;SDS011;51687;52.160;5.298;2022-10-22T06:23:12;12.23;;;3.63;;
43994;SDS011;51687;52.160;5.298;2022-10-22T06:25:40;8.00;;;3.60;;
43994;SDS011;51687;52.160;5.298;2022-10-22T06:28:07;8.70;;;3.85;;
43994;SDS011;51687;52.160;5.298;2022-10-22T06:30:36;10.65;;;3.17;;
43994;SDS011;51687;52.160;5.298;2022-10-22T06:33:09;9.50;;;3.35;;
43994;SDS011;51687;52.160;5.298;2022-10-22T06:35:36;10.20;;;3.63;;
43994;SDS011;51687;52.160;5.298;2022-10-22T06:38:02;8.93;;;3.25;;
43994;SDS011;51687;52.160;5.298;2022-10-22T06:40:29;7.70;;;3.55;;
43994;SDS011;51687;52.160;5.298;2022-10-22T06:42:57;11.32;;;3.33;;
43994;SDS011;51687;52.160;5.298;2022-10-22T06:47:51;10.00;;;3.75;;
43994;SDS011;51687;52.160;5.298;2022-10-22T06:50:18;9.13;;;3.25;;
43994;SDS011;51687;52.160;5.298;2022-10-22T06:52:45;8.32;;;3.60;;
43994;SDS011;51687;52.160;5.298;2022-10-22T06:55:12;13.40;;;3.97;;
43994;SDS011;51687;52.160;5.298;2022-10-22T06:57:38;7.70;;;3.70;;
43994;SDS011;51687;52.160;5.298;2022-10-22T07:00:06;11.25;;;3.53;;
43994;SDS011;51687;52.160;5.298;2022-10-22T07:02:33;7.85;;;3.47;;
43994;SDS011;51687;52.160;5.298;2022-10-22T07:04:59;11.15;;;4.03;;
43994;SDS011;51687;52.160;5.298;2022-10-22T07:07:26;11.13;;;3.45;;
43994;SDS011;51687;52.160;5.298;2022-10-22T07:09:53;15.50;;;3.75;;
43994;SDS011;51687;52.160;5.298;2022-10-22T07:12:20;10.30;;;3.55;;
43994;SDS011;51687;52.160;5.298;2022-10-22T07:14:47;7.88;;;3.95;;
43994;SDS011;51687;52.160;5.298;2022-10-22T07:17:14;14.43;;;4.03;;
43994;SDS011;51687;52.160;5.298;2022-10-22T07:19:41;8.38;;;3.47;;
43994;SDS011;51687;52.160;5.298;2022-10-22T07:22:07;11.70;;;3.33;;
43994;SDS011;51687;52.160;5.298;2022-10-22T07:24:34;11.25;;;3.40;;
43994;SDS011;51687;52.160;5.298;2022-10-22T07:27:01;7.65;;;3.88;;
43994;SDS011;51687;52.160;5.298;2022-10-22T07:29:28;15.00;;;3.90;;
43994;SDS011;51687;52.160;5.298;2022-10-22T07:31:58;16.35;;;3.13;;
43994;SDS011;51687;52.160;5.298;2022-10-22T07:34:24;7.90;;;3.15;;
43994;SDS011;51687;52.160;5.298;2022-10-22T07:36:51;8.60;;;2.95;;
43994;SDS011;51687;52.160;5.298;2022-10-22T07:39:18;9.95;;;3.47;;
43994;SDS011;51687;52.160;5.298;2022-10-22T07:41:44;7.47;;;2.90;;
43994;SDS011;51687;52.160;5.298;2022-10-22T07:44:11;11.38;;;3.25;;
43994;SDS011;51687;52.160;5.298;2022-10-22T07:46:38;10.30;;;3.55;;
43994;SDS011;51687;52.160;5.298;2022-10-22T07:49:04;18.38;;;3.58;;
43994;SDS011;51687;52.160;5.298;2022-10-22T07:51:31;12.27;;;3.10;;
43994;SDS011;51687;52.160;5.298;2022-10-22T07:53:58;6.78;;;2.85;;
43994;SDS011;51687;52.160;5.298;2022-10-22T07:56:24;11.68;;;2.88;;
43994;SDS011;51687;52.160;5.298;2022-10-22T07:58:51;10.57;;;3.30;;
43994;SDS011;51687;52.160;5.298;2022-10-22T08:01:18;9.15;;;2.80;;
43994;SDS011;51687;52.160;5.298;2022-10-22T08:03:45;15.07;;;3.35;;
43994;SDS011;51687;52.160;5.298;2022-10-22T08:06:12;7.53;;;2.63;;
43994;SDS011;51687;52.160;5.298;2022-10-22T08:08:40;12.33;;;3.03;;
43994;SDS011;51687;52.160;5.298;2022-10-22T08:11:08;10.77;;;3.00;;
43994;SDS011;51687;52.160;5.298;2022-10-22T08:13:35;11.40;;;3.55;;
43994;SDS011;51687;52.160;5.298;2022-10-22T08:16:07;6.68;;;2.55;;
43994;SDS011;51687;52.160;5.298;2022-10-22T08:18:34;8.40;;;3.13;;
43994;SDS011;51687;52.160;5.298;2022-10-22T08:21:01;13.25;;;2.95;;
43994;SDS011;51687;52.160;5.298;2022-10-22T08:23:28;8.45;;;2.78;;
43994;SDS011;51687;52.160;5.298;2022-10-22T08:25:55;10.60;;;3.30;;
43994;SDS011;51687;52.160;5.298;2022-10-22T08:28:22;14.82;;;3.42;;
43994;SDS011;51687;52.160;5.298;2022-10-22T08:30:50;8.65;;;3.00;;
43994;SDS011;51687;52.160;5.298;2022-10-22T08:33:17;10.60;;;2.63;;
43994;SDS011;51687;52.160;5.298;2022-10-22T08:35:48;7.22;;;2.42;;
43994;SDS011;51687;52.160;5.298;2022-10-22T08:38:15;8.15;;;3.08;;
43994;SDS011;51687;52.160;5.298;2022-10-22T08:40:43;20.02;;;3.63;;
43994;SDS011;51687;52.160;5.298;2022-10-22T08:43:23;15.88;;;3.15;;
43994;SDS011;51687;52.160;5.298;2022-10-22T08:48:33;10.88;;;2.65;;
43994;SDS011;51687;52.160;5.298;2022-10-22T08:51:03;12.50;;;2.70;;
43994;SDS011;51687;52.160;5.298;2022-10-22T08:53:33;6.63;;;2.35;;
43994;SDS011;51687;52.160;5.298;2022-10-22T08:56:06;11.77;;;3.47;;
43994;SDS011;51687;52.160;5.298;2022-10-22T08:58:35;10.80;;;2.50;;
43994;SDS011;51687;52.160;5.298;2022-10-22T09:01:31;14.18;;;2.80;;
43994;SDS011;51687;52.160;5.298;2022-10-22T09:04:09;8.55;;;3.13;;
43994;SDS011;51687;52.160;5.298;2022-10-22T09:06:44;8.80;;;2.83;;
43994;SDS011;51687;52.160;5.298;2022-10-22T09:09:17;11.95;;;2.90;;
43994;SDS011;51687;52.160;5.298;2022-10-22T09:11:46;10.02;;;2.53;;
43994;SDS011;51687;52.160;5.298;2022-10-22T09:14:16;12.48;;;2.88;;
43994;SDS011;51687;52.160;5.298;2022-10-22T09:19:24;11.30;;;3.00;;
43994;SDS011;51687;52.160;5.298;2022-10-22T09:21:57;7.43;;;2.88;;
43994;SDS011;51687;52.160;5.298;2022-10-22T09:24:36;11.90;;;2.75;;
43994;SDS011;51687;52.160;5.298;2022-10-22T09:27:24;12.38;;;2.92;;
43994;SDS011;51687;52.160;5.298;2022-10-22T09:29:53;14.70;;;3.15;;
43994;SDS011;51687;52.160;5.298;2022-10-22T09:32:20;10.55;;;3.08;;
43994;SDS011;51687;52.160;5.298;2022-10-22T09:34:47;10.35;;;2.67;;
43994;SDS011;51687;52.160;5.298;2022-10-22T09:37:16;9.93;;;2.50;;
43994;SDS011;51687;52.160;5.298;2022-10-22T09:39:45;14.95;;;2.80;;
43994;SDS011;51687;52.160;5.298;2022-10-22T09:42:14;8.18;;;2.97;;
43994;SDS011;51687;52.160;5.298;2022-10-22T09:44:43;11.48;;;2.50;;
43994;SDS011;51687;52.160;5.298;2022-10-22T09:47:28;9.55;;;3.05;;
43994;SDS011;51687;52.160;5.298;2022-10-22T09:50:37;10.93;;;2.63;;
43994;SDS011;51687;52.160;5.298;2022-10-22T09:53:12;10.60;;;2.90;;
43994;SDS011;51687;52.160;5.298;2022-10-22T09:55:49;14.77;;;2.88;;
43994;SDS011;51687;52.160;5.298;2022-10-22T09:58:17;8.38;;;2.38;;
43994;SDS011;51687;52.160;5.298;2022-10-22T10:00:46;7.72;;;2.50;;
43994;SDS011;51687;52.160;5.298;2022-10-22T10:03:18;7.75;;;2.47;;
43994;SDS011;51687;52.160;5.298;2022-10-22T10:05:51;8.50;;;2.30;;
43994;SDS011;51687;52.160;5.298;2022-10-22T10:08:20;11.25;;;2.65;;
43994;SDS011;51687;52.160;5.298;2022-10-22T10:10:49;9.52;;;1.90;;
43994;SDS011;51687;52.160;5.298;2022-10-22T10:13:30;15.60;;;2.70;;
43994;SDS011;51687;52.160;5.298;2022-10-22T10:16:11;9.07;;;2.70;;
43994;SDS011;51687;52.160;5.298;2022-10-22T10:30:18;7.75;;;2.20;;
43994;SDS011;51687;52.160;5.298;2022-10-22T10:38:24;13.60;;;2.65;;
43994;SDS011;51687;52.160;5.298;2022-10-22T10:41:06;7.95;;;2.13;;
43994;SDS011;51687;52.160;5.298;2022-10-22T10:43:46;6.28;;;1.80;;
43994;SDS011;51687;52.160;5.298;2022-10-22T10:46:25;9.52;;;2.00;;
43994;SDS011;51687;52.160;5.298;2022-10-22T10:49:31;6.50;;;2.20;;
43994;SDS011;51687;52.160;5.298;2022-10-22T11:00:13;6.65;;;2.05;;
43994;SDS011;51687;52.160;5.298;2022-10-22T11:03:07;9.57;;;2.00;;
43994;SDS011;51687;52.160;5.298;2022-10-22T11:06:02;8.88;;;2.03;;
43994;SDS011;51687;52.160;5.298;2022-10-22T11:08:44;6.93;;;1.83;;
43994;SDS011;51687;52.160;5.298;2022-10-22T11:14:09;13.20;;;2.58;;
43994;SDS011;51687;52.160;5.298;2022-10-22T11:16:45;8.98;;;2.40;;
43994;SDS011;51687;52.160;5.298;2022-10-22T11:19:24;9.25;;;2.08;;
43994;SDS011;51687;52.160;5.298;2022-10-22T11:25:39;14.80;;;2.28;;
43994;SDS011;51687;52.160;5.298;2022-10-22T11:28:13;8.45;;;2.15;;
43994;SDS011;51687;52.160;5.298;2022-10-22T11:30:47;8.95;;;2.38;;
43994;SDS011;51687;52.160;5.298;2022-10-22T11:33:23;10.40;;;2.10;;
43994;SDS011;51687;52.160;5.298;2022-10-22T11:35:54;11.88;;;1.90;;
43994;SDS011;51687;52.160;5.298;2022-10-22T11:38:24;12.98;;;2.85;;
43994;SDS011;51687;52.160;5.298;2022-10-22T11:40:58;12.63;;;2.03;;
43994;SDS011;51687;52.160;5.298;2022-10-22T11:51:35;8.85;;;2.03;;
43994;SDS011;51687;52.160;5.298;2022-10-22T11:59:49;10.70;;;2.30;;
43994;SDS011;51687;52.160;5.298;2022-10-22T12:02:22;9.93;;;2.35;;
43994;SDS011;51687;52.160;5.298;2022-10-22T12:05:16;14.25;;;2.97;;
43994;SDS011;51687;52.160;5.298;2022-10-22T12:10:26;11.75;;;2.05;;
43994;SDS011;51687;52.160;5.298;2022-10-22T12:13:21;11.38;;;2.15;;
43994;SDS011;51687;52.160;5.298;2022-10-22T12:15:53;14.65;;;2.35;;
43994;SDS011;51687;52.160;5.298;2022-10-22T12:18:29;11.20;;;2.35;;
43994;SDS011;51687;52.160;5.298;2022-10-22T12:21:05;9.13;;;2.05;;
43994;SDS011;51687;52.160;5.298;2022-10-22T12:23:33;7.47;;;2.10;;
43994;SDS011;51687;52.160;5.298;2022-10-22T12:26:02;9.52;;;1.85;;
43994;SDS011;51687;52.160;5.298;2022-10-22T12:28:39;8.88;;;2.53;;
43994;SDS011;51687;52.160;5.298;2022-10-22T12:31:13;8.82;;;3.25;;
43994;SDS011;51687;52.160;5.298;2022-10-22T12:33:40;10.10;;;2.15;;
43994;SDS011;51687;52.160;5.298;2022-10-22T12:36:14;15.20;;;3.10;;
43994;SDS011;51687;52.160;5.298;2022-10-22T12:38:44;10.68;;;2.55;;
43994;SDS011;51687;52.160;5.298;2022-10-22T12:41:14;12.88;;;2.25;;
43994;SDS011;51687;52.160;5.298;2022-10-22T12:43:41;10.85;;;2.75;;
43994;SDS011;51687;52.160;5.298;2022-10-22T12:46:09;9.10;;;2.67;;
43994;SDS011;51687;52.160;5.298;2022-10-22T12:48:39;10.02;;;2.53;;
43994;SDS011;51687;52.160;5.298;2022-10-22T12:51:13;9.25;;;2.15;;
43994;SDS011;51687;52.160;5.298;2022-10-22T12:53:48;11.23;;;2.97;;
43994;SDS011;51687;52.160;5.298;2022-10-22T12:56:22;11.90;;;2.50;;
43994;SDS011;51687;52.160;5.298;2022-10-22T12:58:54;9.15;;;2.25;;
43994;SDS011;51687;52.160;5.298;2022-10-22T13:01:33;12.02;;;3.00;;
43994;SDS011;51687;52.160;5.298;2022-10-22T13:04:06;8.55;;;2.15;;
43994;SDS011;51687;52.160;5.298;2022-10-22T13:06:46;12.43;;;2.55;;
43994;SDS011;51687;52.160;5.298;2022-10-22T13:09:19;8.52;;;2.47;;
43994;SDS011;51687;52.160;5.298;2022-10-22T13:12:01;13.60;;;2.80;;
43994;SDS011;51687;52.160;5.298;2022-10-22T13:14:31;10.00;;;2.22;;
43994;SDS011;51687;52.160;5.298;2022-10-22T13:19:58;8.43;;;2.95;;
43994;SDS011;51687;52.160;5.298;2022-10-22T13:22:34;9.95;;;3.13;;
43994;SDS011;51687;52.160;5.298;2022-10-22T13:28:00;11.35;;;2.53;;
43994;SDS011;51687;52.160;5.298;2022-10-22T13:30:50;10.98;;;2.50;;
43994;SDS011;51687;52.160;5.298;2022-10-22T13:33:26;12.50;;;2.42;;
43994;SDS011;51687;52.160;5.298;2022-10-22T13:35:57;16.80;;;2.65;;
43994;SDS011;51687;52.160;5.298;2022-10-22T13:38:25;8.52;;;2.30;;
43994;SDS011;51687;52.160;5.298;2022-10-22T13:40:53;12.55;;;2.78;;
43994;SDS011;51687;52.160;5.298;2022-10-22T13:43:20;18.58;;;3.33;;
43994;SDS011;51687;52.160;5.298;2022-10-22T13:45:49;11.60;;;2.83;;
43994;SDS011;51687;52.160;5.298;2022-10-22T13:48:19;12.70;;;3.10;;
43994;SDS011;51687;52.160;5.298;2022-10-22T13:50:48;9.48;;;2.85;;
43994;SDS011;51687;52.160;5.298;2022-10-22T13:53:23;16.60;;;3.08;;
43994;SDS011;51687;52.160;5.298;2022-10-22T13:55:51;19.73;;;3.60;;
43994;SDS011;51687;52.160;5.298;2022-10-22T13:58:19;10.32;;;2.65;;
43994;SDS011;51687;52.160;5.298;2022-10-22T14:00:51;11.60;;;2.45;;
43994;SDS011;51687;52.160;5.298;2022-10-22T14:03:24;11.30;;;2.40;;
43994;SDS011;51687;52.160;5.298;2022-10-22T14:05:54;10.40;;;2.15;;
43994;SDS011;51687;52.160;5.298;2022-10-22T14:08:22;9.90;;;2.83;;
43994;SDS011;51687;52.160;5.298;2022-10-22T14:10:51;14.38;;;3.25;;
43994;SDS011;51687;52.160;5.298;2022-10-22T14:13:18;14.05;;;3.78;;
43994;SDS011;51687;52.160;5.298;2022-10-22T14:15:47;14.88;;;3.55;;
43994;SDS011;51687;52.160;5.298;2022-10-22T14:18:16;15.13;;;2.90;;
43994;SDS011;51687;52.160;5.298;2022-10-22T14:20:57;11.23;;;2.88;;
43994;SDS011;51687;52.160;5.298;2022-10-22T14:23:26;20.27;;;3.35;;
43994;SDS011;51687;52.160;5.298;2022-10-22T14:25:54;9.95;;;2.33;;
43994;SDS011;51687;52.160;5.298;2022-10-22T14:28:21;9.75;;;3.08;;
43994;SDS011;51687;52.160;5.298;2022-10-22T14:30:48;15.25;;;3.35;;
43994;SDS011;51687;52.160;5.298;2022-10-22T14:33:17;15.77;;;3.20;;
43994;SDS011;51687;52.160;5.298;2022-10-22T14:35:57;13.38;;;2.55;;
43994;SDS011;51687;52.160;5.298;2022-10-22T14:38:25;15.52;;;3.13;;
43994;SDS011;51687;52.160;5.298;2022-10-22T14:40:51;11.25;;;2.60;;
43994;SDS011;51687;52.160;5.298;2022-10-22T14:43:29;14.10;;;3.45;;
43994;SDS011;51687;52.160;5.298;2022-10-22T14:45:56;10.32;;;3.15;;
43994;SDS011;51687;52.160;5.298;2022-10-22T14:48:23;12.18;;;2.83;;
43994;SDS011;51687;52.160;5.298;2022-10-22T14:50:50;10.35;;;2.38;;
43994;SDS011;51687;52.160;5.298;2022-10-22T14:53:17;12.90;;;2.53;;
43994;SDS011;51687;52.160;5.298;2022-10-22T14:55:44;8.73;;;2.55;;
43994;SDS011;51687;52.160;5.298;2022-10-22T14:58:12;11.30;;;2.70;;
43994;SDS011;51687;52.160;5.298;2022-10-22T15:00:40;9.43;;;2.13;;
43994;SDS011;51687;52.160;5.298;2022-10-22T15:03:08;8.05;;;2.58;;
43994;SDS011;51687;52.160;5.298;2022-10-22T15:05:35;7.30;;;2.20;;
43994;SDS011;51687;52.160;5.298;2022-10-22T15:08:17;12.32;;;2.75;;
43994;SDS011;51687;52.160;5.298;2022-10-22T15:10:44;13.93;;;2.60;;
43994;SDS011;51687;52.160;5.298;2022-10-22T15:13:10;10.07;;;2.55;;
43994;SDS011;51687;52.160;5.298;2022-10-22T15:15:40;10.82;;;2.03;;
43994;SDS011;51687;52.160;5.298;2022-10-22T15:18:07;9.32;;;2.20;;
43994;SDS011;51687;52.160;5.298;2022-10-22T15:20:34;9.18;;;2.40;;
43994;SDS011;51687;52.160;5.298;2022-10-22T15:23:00;13.13;;;2.75;;
43994;SDS011;51687;52.160;5.298;2022-10-22T15:25:28;9.70;;;2.95;;
43994;SDS011;51687;52.160;5.298;2022-10-22T15:27:56;8.85;;;2.25;;
43994;SDS011;51687;52.160;5.298;2022-10-22T15:30:29;11.32;;;2.55;;
43994;SDS011;51687;52.160;5.298;2022-10-22T15:32:56;12.00;;;2.90;;
43994;SDS011;51687;52.160;5.298;2022-10-22T15:35:25;14.90;;;2.90;;
43994;SDS011;51687;52.160;5.298;2022-10-22T15:37:53;12.25;;;3.45;;
43994;SDS011;51687;52.160;5.298;2022-10-22T15:40:20;11.18;;;2.42;;
43994;SDS011;51687;52.160;5.298;2022-10-22T15:42:47;12.52;;;2.67;;
43994;SDS011;51687;52.160;5.298;2022-10-22T15:45:13;13.15;;;2.72;;
43994;SDS011;51687;52.160;5.298;2022-10-22T15:47:43;11.95;;;2.70;;
43994;SDS011;51687;52.160;5.298;2022-10-22T15:50:13;14.65;;;2.83;;
43994;SDS011;51687;52.160;5.298;2022-10-22T15:52:39;11.50;;;2.42;;
43994;SDS011;51687;52.160;5.298;2022-10-22T15:55:06;9.23;;;2.83;;
43994;SDS011;51687;52.160;5.298;2022-10-22T15:57:36;12.38;;;3.08;;
43994;SDS011;51687;52.160;5.298;2022-10-22T16:00:04;11.55;;;2.92;;
43994;SDS011;51687;52.160;5.298;2022-10-22T16:02:32;9.50;;;2.87;;
43994;SDS011;51687;52.160;5.298;2022-10-22T16:04:58;12.63;;;3.17;;
43994;SDS011;51687;52.160;5.298;2022-10-22T16:07:25;11.18;;;3.30;;
43994;SDS011;51687;52.160;5.298;2022-10-22T16:09:56;10.77;;;4.00;;
43994;SDS011;51687;52.160;5.298;2022-10-22T16:12:23;7.13;;;3.63;;
43994;SDS011;51687;52.160;5.298;2022-10-22T16:14:50;14.07;;;5.75;;
43994;SDS011;51687;52.160;5.298;2022-10-22T16:17:17;10.73;;;6.35;;
43994;SDS011;51687;52.160;5.298;2022-10-22T16:19:44;13.85;;;7.95;;
43994;SDS011;51687;52.160;5.298;2022-10-22T16:22:12;18.50;;;13.18;;
43994;SDS011;51687;52.160;5.298;2022-10-22T16:24:40;20.45;;;15.73;;
43994;SDS011;51687;52.160;5.298;2022-10-22T16:27:07;23.38;;;15.32;;